Auburn Hills, Michigan
Current Conditions -  °F | °C
As of 4:35 PM on Monday 24 Nov 2014 (Local Time) from KVLL Reporting Station
Overcast Overcast  
Wind Chill:   Ceiling: 2500
Heat Index:   Visibility: 10mi
Dew Point:   Wind: 20mph
Humidity: 67%   Direction: 230°SW
Pressure: 29.43"   Gusts: 41mph
Location:  42.67°N, 83.22°W
Report Text: KVLL 242135Z AUTO 23017G36KT 10SM OVC025 06/00 A2943 RMK AO2 T00580000
Loading
Personal Weather Stations






























Interactive Weather Map New forecast layout! Learn more

10-Day Weather Forecast

Advertisements
Track Severe Weather on mobile